Time;durP1;ratioP1;P1;durP2;ratioP2;P2;SDS_P1;SDS_P2;PMS_P1;PMS_P2;Temp;Humidity;BMP_temperature;BMP_pressure;BME280_temperature;BME280_humidity;BME280_pressure;Samples;Min_cycle;Max_cycle;Signal;HPM_P1;HPM_P2
2022/03/17 00:01:34;;;;;;;9.50;3.65;;;;;;;-4.18;41.29;101726.22;4876897;29;20503;-72
2022/03/17 00:03:58;;;;;;;8.10;4.63;;;;;;;-4.17;41.38;101725.34;4881482;29;20519;-72
2022/03/17 00:06:23;;;;;;;6.13;4.40;;;;;;;-4.20;41.24;101730.53;4879313;29;20487;-72
2022/03/17 00:08:48;;;;;;;5.80;4.00;;;;;;;-4.20;41.37;101729.63;4849605;29;20084;-74
2022/03/17 00:11:13;;;;;;;7.85;4.32;;;;;;;-4.21;41.22;101731.38;4857351;29;20055;-71
2022/03/17 00:13:38;;;;;;;9.02;4.70;;;;;;;-4.25;41.45;101741.66;4863387;29;20104;-73
2022/03/17 00:16:04;;;;;;;6.47;3.75;;;;;;;-4.27;41.58;101731.22;4860002;29;20053;-73
2022/03/17 00:18:29;;;;;;;8.95;4.15;;;;;;;-4.29;41.61;101726.84;4854214;29;20053;-71
2022/03/17 00:20:53;;;;;;;7.13;5.18;;;;;;;-4.32;41.45;101735.44;4862365;29;20063;-71
2022/03/17 00:23:18;;;;;;;8.50;4.10;;;;;;;-4.33;41.70;101738.03;4878556;29;20134;-72
2022/03/17 00:25:43;;;;;;;6.57;4.45;;;;;;;-4.35;41.68;101740.59;4881880;29;20048;-73
2022/03/17 00:28:08;;;;;;;4.82;3.65;;;;;;;-4.37;41.83;101731.84;4881507;29;20072;-70
2022/03/17 00:30:34;;;;;;;9.20;4.13;;;;;;;-4.37;41.81;101731.84;4884426;29;20406;-70
2022/03/17 00:32:59;;;;;;;7.05;4.30;;;;;;;-4.39;41.95;101730.94;4880356;29;20418;-68
2022/03/17 00:35:35;;;;;;;6.43;3.70;;;;;;;-4.39;42.18;101728.34;4878119;29;20442;-73
2022/03/17 00:38:01;;;;;;;9.32;4.55;;;;;;;-4.38;41.82;101735.31;4863500;29;20048;-73
2022/03/17 00:40:26;;;;;;;7.15;4.35;;;;;;;-4.36;42.07;101733.63;4869495;29;20180;-73
2022/03/17 00:42:51;;;;;;;7.20;4.18;;;;;;;-4.35;41.88;101734.50;4859786;29;20407;-73
2022/03/17 00:45:16;;;;;;;6.95;4.75;;;;;;;-4.34;41.94;101739.75;4861290;29;20408;-69
2022/03/17 00:47:41;;;;;;;6.95;4.22;;;;;;;-4.33;42.13;101741.50;4861188;29;20412;-73
2022/03/17 00:50:08;;;;;;;8.13;4.85;;;;;;;-4.33;42.31;101751.91;4861545;29;20408;-73
2022/03/17 00:52:32;;;;;;;7.35;3.88;;;;;;;-4.33;42.60;101745.84;4859684;29;20500;-70
2022/03/17 00:54:57;;;;;;;10.15;4.88;;;;;;;-4.34;42.25;101746.69;4860579;29;20563;-70
2022/03/17 00:57:22;;;;;;;9.15;4.28;;;;;;;-4.35;42.21;101758.81;4861263;29;20060;-71
2022/03/17 00:59:49;;;;;;;8.95;4.72;;;;;;;-4.39;42.09;101752.66;4861025;29;20044;-69
2022/03/17 01:02:13;;;;;;;8.20;4.32;;;;;;;-4.41;42.58;101754.34;4861307;29;20128;-70
2022/03/17 01:04:38;;;;;;;7.30;4.00;;;;;;;-4.42;42.63;101762.13;4861103;29;20132;-75
2022/03/17 01:07:03;;;;;;;9.82;4.88;;;;;;;-4.44;42.19;101766.41;4861477;29;20052;-72
2022/03/17 01:09:28;;;;;;;7.40;4.55;;;;;;;-4.45;42.69;101764.66;4861037;29;20137;-73
2022/03/17 01:11:53;;;;;;;11.02;4.10;;;;;;;-4.48;42.85;101767.19;4860114;29;20048;-73
2022/03/17 01:14:17;;;;;;;8.15;4.20;;;;;;;-4.48;42.53;101790.59;4861715;29;20404;-71
2022/03/17 01:16:43;;;;;;;6.55;4.43;;;;;;;-4.48;42.96;101772.38;4849105;29;20056;-69
2022/03/17 01:19:08;;;;;;;9.45;5.15;;;;;;;-4.53;42.76;101777.50;4869972;29;20055;-68
2022/03/17 01:21:33;;;;;;;6.82;3.88;;;;;;;-4.58;43.36;101778.22;4869641;29;20068;-67
2022/03/17 01:23:58;;;;;;;7.28;4.13;;;;;;;-4.62;43.19;101772.03;4870992;29;20049;-67
2022/03/17 01:26:22;;;;;;;7.28;4.82;;;;;;;-4.63;43.19;101778.13;4870988;29;20044;-68
2022/03/17 01:28:47;;;;;;;5.80;3.85;;;;;;;-4.65;43.37;101773.72;4871298;29;20064;-68
2022/03/17 01:31:13;;;;;;;7.45;4.50;;;;;;;-4.65;43.40;101769.41;4870568;29;20419;-68
2022/03/17 01:33:38;;;;;;;14.05;4.38;;;;;;;-4.64;43.70;101771.16;4854290;29;20040;-68
2022/03/17 01:36:02;;;;;;;6.95;3.95;;;;;;;-4.63;43.21;101770.31;4868812;29;20037;-66
2022/03/17 01:38:27;;;;;;;6.78;4.53;;;;;;;-4.63;43.14;101774.66;4869172;29;20420;-67
2022/03/17 01:40:52;;;;;;;6.30;4.18;;;;;;;-4.66;43.69;101785.84;4868677;29;20527;-66
2022/03/17 01:43:19;;;;;;;6.72;3.83;;;;;;;-4.66;43.57;101790.16;4871792;29;20260;-66
2022/03/17 01:45:44;;;;;;;8.85;4.70;;;;;;;-4.70;43.69;101784.00;4863486;29;20372;-67
2022/03/17 01:48:09;;;;;;;13.65;5.03;;;;;;;-4.71;44.21;101782.25;4863505;29;20048;-68
2022/03/17 01:50:33;;;;;;;14.93;5.55;;;;;;;-4.70;44.06;101785.72;4867705;29;20055;-68
2022/03/17 01:52:58;;;;;;;8.15;4.50;;;;;;;-4.70;43.86;101784.00;4863702;29;20135;-67
2022/03/17 01:55:24;;;;;;;10.38;5.03;;;;;;;-4.70;44.01;101777.91;4866369;29;20523;-67
2022/03/17 01:57:49;;;;;;;7.40;4.13;;;;;;;-4.71;43.98;101790.03;4867783;29;20044;-67
2022/03/17 02:00:17;;;;;;;7.85;4.43;;;;;;;-4.72;44.01;101792.59;4865744;29;20048;-67
2022/03/17 02:02:42;;;;;;;9.32;4.32;;;;;;;-4.76;44.42;101791.66;4848011;29;20135;-67
2022/03/17 02:05:07;;;;;;;5.40;4.65;;;;;;;-4.74;44.43;101789.13;4861589;29;20132;-67
2022/03/17 02:07:32;;;;;;;9.00;5.00;;;;;;;-4.76;43.82;101781.25;4862822;29;20381;-67
2022/03/17 02:09:57;;;;;;;7.75;4.55;;;;;;;-4.76;44.29;101782.16;4862548;29;20124;-67
2022/03/17 02:15:08;;;;;;;6.65;4.63;;;;;;;-4.78;44.75;101785.53;4862138;29;20049;-67
2022/03/17 02:17:39;;;;;;;9.40;5.18;;;;;;;-4.80;44.50;101788.09;4863563;29;20135;-66
2022/03/17 02:20:04;;;;;;;5.07;4.28;;;;;;;-4.82;44.41;101797.59;4863209;29;20516;-67
2022/03/17 02:22:29;;;;;;;9.00;4.88;;;;;;;-4.81;44.43;101808.88;4863600;29;20586;-67
2022/03/17 02:27:47;;;;;;;7.05;4.90;;;;;;;-4.80;43.89;101798.50;4863463;29;20088;-68
2022/03/17 02:30:20;;;;;;;8.32;3.92;;;;;;;-4.82;44.00;101800.19;4863558;29;20040;-68
2022/03/17 02:32:45;;;;;;;8.73;4.68;;;;;;;-4.87;44.14;101801.81;4864060;29;20647;-67
2022/03/17 02:35:13;;;;;;;8.23;3.88;;;;;;;-4.89;44.20;101800.00;4862392;29;20049;-65
2022/03/17 02:37:38;;;;;;;6.28;3.78;;;;;;;-4.92;44.14;101803.41;4866747;29;20050;-67
2022/03/17 02:40:07;;;;;;;10.00;4.72;;;;;;;-4.91;43.69;101806.88;4864496;29;20139;-66
2022/03/17 02:42:32;;;;;;;10.38;4.28;;;;;;;-4.95;43.99;101803.31;4864846;29;20052;-66
2022/03/17 02:44:59;;;;;;;8.23;4.10;;;;;;;-4.96;44.31;101806.75;4863673;29;20052;-65
2022/03/17 02:47:24;;;;;;;6.03;4.25;;;;;;;-5.01;44.10;101808.38;4861855;29;20492;-66
2022/03/17 02:49:48;;;;;;;9.52;4.30;;;;;;;-5.02;43.51;101818.72;4862163;29;20511;-65
2022/03/17 02:52:13;;;;;;;5.93;3.88;;;;;;;-5.06;43.54;101825.56;4862848;29;20054;-67
2022/03/17 02:54:38;;;;;;;11.27;6.03;;;;;;;-5.08;43.32;101824.66;4863256;29;20384;-67
2022/03/17 02:57:05;;;;;;;7.63;3.90;;;;;;;-5.13;44.14;101827.13;4862080;29;20055;-71
2022/03/17 02:59:30;;;;;;;10.00;4.95;;;;;;;-5.17;44.35;101835.66;4870021;29;20537;-72
2022/03/17 03:01:55;;;;;;;6.57;4.28;;;;;;;-5.19;44.54;101832.16;4871458;29;20575;-72
2022/03/17 03:04:20;;;;;;;8.73;5.18;;;;;;;-5.22;44.58;101824.28;4870697;29;20410;-71
2022/03/17 03:06:46;;;;;;;6.28;4.70;;;;;;;-5.23;44.26;101834.63;4873128;29;20542;-70
2022/03/17 03:09:13;;;;;;;7.45;4.15;;;;;;;-5.23;44.05;101838.13;4869655;29;20048;-69
2022/03/17 03:11:41;;;;;;;7.25;4.43;;;;;;;-5.26;44.12;101844.94;4871220;29;20047;-67
2022/03/17 03:14:09;;;;;;;5.28;3.55;;;;;;;-5.28;44.59;101850.09;4880359;29;20044;-67
2022/03/17 03:16:35;;;;;;;9.70;4.30;;;;;;;-5.29;44.88;101850.06;4859654;29;20127;-66
2022/03/17 03:19:00;;;;;;;7.50;3.90;;;;;;;-5.31;44.11;101854.34;4879510;29;20520;-68
2022/03/17 03:21:24;;;;;;;7.07;3.95;;;;;;;-5.32;44.62;101848.28;4878253;29;20456;-68
2022/03/17 03:23:49;;;;;;;7.25;3.90;;;;;;;-5.34;44.53;101867.25;4875704;29;20047;-70
2022/03/17 03:26:14;;;;;;;6.70;4.68;;;;;;;-5.36;43.90;101855.94;4863531;29;20056;-68
2022/03/17 03:28:39;;;;;;;8.48;4.55;;;;;;;-5.38;44.39;101858.47;4862913;29;20169;-69
2022/03/17 03:31:03;;;;;;;6.95;4.05;;;;;;;-5.40;44.50;101854.06;4851515;29;20108;-68
2022/03/17 03:33:28;;;;;;;7.45;4.30;;;;;;;-5.41;44.54;101862.69;4871846;29;20080;-64
2022/03/17 03:38:36;;;;;;;6.38;4.13;;;;;;;-5.43;44.57;101864.41;4862569;29;20048;-64
2022/03/17 03:41:01;;;;;;;7.97;4.47;;;;;;;-5.45;44.23;101864.34;4862197;29;20041;-64
2022/03/17 03:43:26;;;;;;;9.05;5.22;;;;;;;-5.46;44.02;101859.09;4862296;29;20070;-64
2022/03/17 03:45:50;;;;;;;6.63;4.22;;;;;;;-5.45;44.68;101855.66;4862061;29;20420;-64
2022/03/17 03:48:15;;;;;;;9.90;4.47;;;;;;;-5.44;43.93;101875.63;4862183;29;20047;-64
2022/03/17 03:50:40;;;;;;;7.18;4.20;;;;;;;-5.46;43.88;101872.09;4862225;29;20052;-64
2022/03/17 03:53:05;;;;;;;7.97;5.10;;;;;;;-5.44;44.20;101886.91;4861954;29;20085;-64
2022/03/17 03:55:30;;;;;;;8.68;4.82;;;;;;;-5.37;44.44;101872.34;4860367;29;20052;-66
2022/03/17 03:57:54;;;;;;;5.47;3.40;;;;;;;-5.31;44.48;101870.84;4862202;29;20040;-66
2022/03/17 04:02:51;;;;;;;10.98;4.90;;;;;;;-5.10;43.96;101880.94;4862284;29;20056;-67
2022/03/17 04:05:17;;;;;;;9.45;5.38;;;;;;;-4.98;43.87;101883.88;4861396;29;20052;-66
2022/03/17 04:07:42;;;;;;;7.10;4.22;;;;;;;-4.85;43.17;101885.06;4860640;29;20048;-66
2022/03/17 04:10:07;;;;;;;9.82;3.90;;;;;;;-4.69;43.23;101886.38;4860573;29;20056;-66
2022/03/17 04:12:32;;;;;;;7.80;4.47;;;;;;;-4.51;42.92;101895.53;4860684;29;20123;-67
2022/03/17 04:14:57;;;;;;;9.05;4.28;;;;;;;-4.31;42.54;101902.97;4862112;29;20112;-66
2022/03/17 04:17:23;;;;;;;7.95;3.80;;;;;;;-4.14;42.02;101902.53;4860428;29;20055;-66
2022/03/17 04:19:48;;;;;;;13.40;4.70;;;;;;;-3.98;41.45;101908.13;4861634;29;20415;-66
2022/03/17 04:22:13;;;;;;;8.10;4.43;;;;;;;-3.85;41.76;101905.84;4860277;29;20416;-66
2022/03/17 04:24:37;;;;;;;9.13;4.95;;;;;;;-3.74;41.42;101911.28;4861128;29;20621;-66
2022/03/17 04:27:04;;;;;;;9.30;4.88;;;;;;;-3.64;41.89;101902.84;4861917;29;20054;-66
2022/03/17 04:29:29;;;;;;;7.32;4.70;;;;;;;-3.52;41.29;101899.63;4861279;29;20048;-67
2022/03/17 04:31:54;;;;;;;9.68;5.03;;;;;;;-3.35;41.19;101912.16;4861659;29;20044;-67
2022/03/17 04:34:18;;;;;;;11.05;5.60;;;;;;;-3.14;40.73;101908.22;4861373;29;20044;-66
2022/03/17 04:36:43;;;;;;;7.75;5.10;;;;;;;-2.90;40.16;101913.06;4860034;29;20123;-66
2022/03/17 04:39:10;;;;;;;10.68;5.22;;;;;;;-2.70;40.04;101911.69;4860855;29;20036;-67
2022/03/17 04:41:35;;;;;;;7.13;4.38;;;;;;;-2.52;39.35;101917.28;4844817;29;20487;-64
2022/03/17 04:44:00;;;;;;;10.32;3.75;;;;;;;-2.34;39.30;101914.09;4861462;29;20472;-63
2022/03/17 04:46:25;;;;;;;8.35;4.43;;;;;;;-2.20;39.22;101921.31;4861868;29;20056;-63
2022/03/17 04:48:50;;;;;;;10.77;5.82;;;;;;;-2.04;38.89;101922.47;4860957;29;20048;-63
2022/03/17 04:51:15;;;;;;;7.68;4.45;;;;;;;-1.95;38.81;101926.94;4861827;29;20494;-63
2022/03/17 04:53:39;;;;;;;8.32;4.28;;;;;;;-1.91;38.18;101927.00;4860916;29;20040;-63
2022/03/17 04:56:12;;;;;;;8.95;4.25;;;;;;;-1.70;38.71;101930.84;4861522;29;20044;-65
2022/03/17 04:58:40;;;;;;;9.63;5.25;;;;;;;-1.59;37.95;101926.63;4849803;29;20519;-65
2022/03/17 05:01:06;;;;;;;8.05;4.63;;;;;;;-1.40;37.85;101927.75;4843969;29;20104;-62
2022/03/17 05:03:31;;;;;;;12.10;5.38;;;;;;;-1.17;37.40;101923.72;4848049;29;20057;-63
2022/03/17 05:05:56;;;;;;;9.18;5.57;;;;;;;-0.92;36.55;101932.75;4850229;29;20052;-63
2022/03/17 05:08:21;;;;;;;9.35;4.68;;;;;;;-0.72;36.68;101931.22;4850276;29;20078;-65
2022/03/17 05:10:47;;;;;;;6.55;4.57;;;;;;;-0.52;36.62;101934.94;4844380;29;20052;-66
2022/03/17 05:13:12;;;;;;;8.10;4.72;;;;;;;-0.34;36.14;101938.63;4844941;29;20045;-65
2022/03/17 05:15:37;;;;;;;9.10;5.05;;;;;;;-0.13;36.26;101944.06;4847007;29;20053;-66
2022/03/17 05:18:07;;;;;;;13.05;5.10;;;;;;;0.02;35.66;101952.03;4848213;29;20049;-65
2022/03/17 05:20:32;;;;;;;12.43;5.00;;;;;;;0.24;34.90;101939.97;4844082;29;20084;-66
2022/03/17 05:22:57;;;;;;;10.10;5.25;;;;;;;0.38;34.79;101947.94;4851603;29;20060;-65
2022/03/17 05:25:22;;;;;;;9.63;4.70;;;;;;;0.44;34.03;101946.25;4855569;29;20086;-66
2022/03/17 05:27:49;;;;;;;10.55;5.20;;;;;;;0.44;34.57;101948.00;4849224;29;20475;-64
2022/03/17 05:30:16;;;;;;;9.20;4.30;;;;;;;0.59;33.70;101953.31;4847313;29;20494;-68
2022/03/17 05:32:42;;;;;;;12.02;5.10;;;;;;;0.81;33.61;101951.69;4843216;29;20052;-66
2022/03/17 05:35:07;;;;;;;10.07;5.13;;;;;;;1.02;33.04;101944.78;4842069;29;20124;-67
2022/03/17 05:37:34;;;;;;;6.03;4.07;;;;;;;1.40;32.34;101941.44;4842974;29;20045;-65
2022/03/17 05:39:59;;;;;;;9.73;4.50;;;;;;;1.84;31.75;101946.78;4843039;29;20052;-66
2022/03/17 05:42:23;;;;;;;12.73;6.10;;;;;;;2.29;31.40;101938.00;4845633;29;20041;-65
2022/03/17 05:44:48;;;;;;;13.38;6.00;;;;;;;2.83;30.03;101928.22;4846828;29;20126;-66
2022/03/17 05:47:13;;;;;;;14.05;5.35;;;;;;;3.32;29.79;101941.19;4845200;29;20530;-65
2022/03/17 05:49:38;;;;;;;12.85;5.07;;;;;;;3.76;29.23;101935.66;4829634;29;20045;-65
2022/03/17 05:52:03;;;;;;;8.77;4.28;;;;;;;4.18;28.57;101943.22;4847632;29;20041;-66
2022/03/17 05:54:28;;;;;;;8.65;5.78;;;;;;;4.52;27.57;101942.91;4850600;29;20135;-77
2022/03/17 05:56:53;;;;;;;12.95;6.10;;;;;;;4.89;27.33;101941.63;4851247;29;20081;-67
2022/03/17 05:59:17;;;;;;;14.52;6.10;;;;;;;5.11;26.95;101948.41;4852652;29;20407;-68
2022/03/17 06:01:42;;;;;;;9.18;4.72;;;;;;;5.38;26.20;101941.03;4847248;29;20052;-68
2022/03/17 06:04:07;;;;;;;8.00;4.93;;;;;;;5.67;26.10;101941.50;4844562;29;20064;-66
2022/03/17 06:06:32;;;;;;;9.55;4.78;;;;;;;6.15;25.61;101947.84;4844331;29;20412;-67
2022/03/17 06:08:56;;;;;;;11.63;4.93;;;;;;;6.69;24.91;101946.88;4829117;29;20055;-67
2022/03/17 06:11:21;;;;;;;8.60;4.85;;;;;;;7.14;24.14;101945.97;4846181;29;20120;-67
2022/03/17 06:13:46;;;;;;;12.55;4.43;;;;;;;7.60;23.51;101944.97;4845355;29;20504;-66
2022/03/17 06:16:11;;;;;;;11.48;4.82;;;;;;;7.85;23.27;101954.13;4845122;29;20049;-66
2022/03/17 06:18:36;;;;;;;13.20;5.10;;;;;;;8.07;22.67;101951.84;4845445;29;20131;-67
2022/03/17 06:21:01;;;;;;;11.63;5.53;;;;;;;8.19;22.43;101958.63;4845006;29;20147;-67
2022/03/17 06:23:26;;;;;;;9.25;4.20;;;;;;;8.28;22.45;101948.66;4845304;29;20059;-66
2022/03/17 06:25:50;;;;;;;7.60;4.70;;;;;;;8.55;21.63;101951.56;4844987;29;20077;-66
2022/03/17 06:28:15;;;;;;;8.50;4.50;;;;;;;8.96;21.35;101951.28;4843860;29;20416;-65
2022/03/17 06:30:40;;;;;;;10.45;4.95;;;;;;;9.31;21.16;101950.28;4845212;29;20084;-65
2022/03/17 06:33:05;;;;;;;6.55;4.22;;;;;;;9.89;20.40;101959.16;4828939;29;20590;-66
2022/03/17 06:35:30;;;;;;;12.48;4.38;;;;;;;10.39;20.28;101952.16;4845540;29;20051;-65
2022/03/17 06:37:57;;;;;;;13.18;4.72;;;;;;;11.03;19.26;101952.59;4845006;29;20049;-64
2022/03/17 06:40:23;;;;;;;7.72;4.07;;;;;;;11.67;18.58;101960.81;4844022;29;20412;-64
2022/03/17 06:42:49;;;;;;;12.23;4.70;;;;;;;11.93;18.04;101952.69;4828218;29;20176;-64
2022/03/17 06:45:15;;;;;;;6.80;3.75;;;;;;;12.44;17.42;101959.47;4844094;29;20408;-64
2022/03/17 06:47:40;;;;;;;7.25;3.80;;;;;;;12.19;16.52;101966.81;4845132;29;20053;-64
2022/03/17 06:50:06;;;;;;;8.85;4.20;;;;;;;12.14;16.80;101966.09;4844827;29;20048;-63
2022/03/17 06:52:31;;;;;;;11.25;3.90;;;;;;;12.25;16.57;101961.19;4843482;29;20053;-64
2022/03/17 06:54:56;;;;;;;8.18;3.42;;;;;;;11.80;15.78;101972.81;4843411;29;20063;-65
2022/03/17 06:57:22;;;;;;;8.93;4.15;;;;;;;11.43;16.11;101975.13;4845331;29;20049;-67
2022/03/17 06:59:48;;;;;;;13.88;3.90;;;;;;;10.77;15.63;101963.31;4845002;29;20049;-67
2022/03/17 07:02:13;;;;;;;14.70;4.05;;;;;;;9.89;16.23;101960.94;4844838;29;20049;-67
2022/03/17 07:04:39;;;;;;;9.98;3.40;;;;;;;9.41;16.69;101975.69;4844962;29;20131;-66
2022/03/17 07:07:04;;;;;;;3.92;2.80;;;;;;;8.85;17.23;101960.47;4843535;29;20045;-67
2022/03/17 07:09:29;;;;;;;7.35;3.85;;;;;;;8.28;17.16;101963.72;4843544;29;20044;-66
2022/03/17 07:11:53;;;;;;;5.50;2.97;;;;;;;8.02;17.69;101972.31;4850896;29;20053;-67
2022/03/17 07:14:18;;;;;;;7.13;5.13;;;;;;;7.73;17.53;101962.38;4848463;29;20051;-68
2022/03/17 07:16:43;;;;;;;9.20;3.28;;;;;;;7.60;17.87;101968.88;4845018;29;20140;-67
2022/03/17 07:19:08;;;;;;;6.82;3.55;;;;;;;7.67;18.20;101970.50;4844155;29;20404;-66
2022/03/17 07:21:33;;;;;;;7.07;3.88;;;;;;;8.45;18.18;101981.94;4843011;29;20065;-67
2022/03/17 07:23:59;;;;;;;9.75;4.25;;;;;;;9.03;17.57;101975.91;4843136;29;20055;-67
2022/03/17 07:26:23;;;;;;;6.65;3.90;;;;;;;9.44;17.10;101966.75;4843194;29;20127;-65
2022/03/17 07:28:49;;;;;;;7.45;3.55;;;;;;;10.24;16.81;101974.03;4844166;29;20466;-65
2022/03/17 07:31:15;;;;;;;10.70;4.30;;;;;;;11.06;16.09;101965.78;4842821;29;20110;-64
2022/03/17 07:33:39;;;;;;;8.82;3.33;;;;;;;11.65;15.52;101968.91;4844179;29;20051;-65
2022/03/17 07:36:05;;;;;;;6.00;3.33;;;;;;;12.17;15.26;101979.34;4844951;29;20049;-65
2022/03/17 07:38:30;;;;;;;6.63;4.05;;;;;;;12.30;15.43;101968.06;4842948;29;20068;-65
2022/03/17 07:40:55;;;;;;;9.07;3.90;;;;;;;11.96;15.09;101965.91;4843078;29;20044;-66
2022/03/17 07:43:19;;;;;;;11.50;3.95;;;;;;;11.95;15.55;101974.00;4844226;29;20053;-68
2022/03/17 07:46:11;;;;;;;7.95;3.47;;;;;;;11.79;15.27;101971.06;4790185;29;20550;-65
2022/03/17 07:48:41;;;;;;;22.48;4.22;;;;;;;12.09;15.54;101978.78;4790119;29;20057;-66
2022/03/17 07:51:14;;;;;;;11.05;4.40;;;;;;;12.19;15.65;101980.19;4804944;29;20137;-66
2022/03/17 07:53:39;;;;;;;11.48;3.72;;;;;;;11.67;15.58;101982.19;4804835;29;20068;-64
2022/03/17 07:56:06;;;;;;;6.88;3.50;;;;;;;11.30;15.78;101982.72;4804648;29;20042;-64
2022/03/17 07:58:32;;;;;;;11.48;4.65;;;;;;;11.81;15.37;101981.69;4789639;29;20053;-64
2022/03/17 08:00:59;;;;;;;6.85;3.92;;;;;;;13.10;14.60;101981.56;4789493;29;20042;-63
2022/03/17 08:03:24;;;;;;;7.88;4.00;;;;;;;14.25;14.13;101980.59;4804386;29;20054;-63
2022/03/17 08:05:49;;;;;;;7.93;3.90;;;;;;;15.02;14.00;101985.63;4804808;29;20049;-63
2022/03/17 08:08:18;;;;;;;9.23;4.10;;;;;;;15.76;13.05;101986.97;4789418;29;20050;-64
2022/03/17 08:10:43;;;;;;;6.13;3.70;;;;;;;16.71;12.65;101979.66;4805224;29;20129;-64
2022/03/17 08:13:09;;;;;;;8.02;3.72;;;;;;;17.41;12.03;101986.09;4804912;29;20089;-63
2022/03/17 08:15:35;;;;;;;6.38;3.67;;;;;;;17.63;11.65;101985.63;4789905;29;20049;-64
2022/03/17 08:18:00;;;;;;;9.02;4.25;;;;;;;17.69;11.70;101988.81;4804790;29;20081;-63
2022/03/17 08:20:25;;;;;;;6.35;3.88;;;;;;;17.86;11.52;101993.13;4805405;29;20157;-65
2022/03/17 08:22:50;;;;;;;9.52;4.32;;;;;;;17.83;11.22;101981.69;4813162;29;20513;-66
2022/03/17 08:25:15;;;;;;;7.38;3.58;;;;;;;17.76;11.04;101982.06;4843098;29;20052;-64
2022/03/17 08:27:40;;;;;;;7.25;3.80;;;;;;;17.78;11.27;101988.22;4842951;29;20049;-65
2022/03/17 08:30:05;;;;;;;10.00;4.20;;;;;;;17.91;11.17;101996.41;4843137;29;20109;-64
2022/03/17 08:32:30;;;;;;;8.15;3.97;;;;;;;18.42;11.19;101996.63;4842807;29;20060;-64
2022/03/17 08:34:55;;;;;;;8.32;3.92;;;;;;;18.94;11.03;101996.69;4842944;29;20049;-66
2022/03/17 08:37:19;;;;;;;7.97;3.90;;;;;;;19.19;10.69;101996.69;4842597;29;20152;-65
2022/03/17 08:39:44;;;;;;;15.90;4.35;;;;;;;19.19;10.69;101988.56;4841393;29;20067;-65
2022/03/17 08:42:09;;;;;;;10.73;4.22;;;;;;;19.01;10.66;101999.81;4841520;29;20425;-64
2022/03/17 08:44:34;;;;;;;6.70;3.85;;;;;;;18.97;10.65;101998.28;4842282;29;20080;-65
2022/03/17 08:49:41;;;;;;;9.23;4.07;;;;;;;18.20;9.85;102002.59;4841045;29;20049;-65
2022/03/17 08:52:07;;;;;;;7.18;4.32;;;;;;;17.38;10.06;101991.72;4842381;29;20059;-63
2022/03/17 08:54:34;;;;;;;9.52;3.58;;;;;;;17.09;10.49;102012.38;4849927;29;20041;-63
2022/03/17 08:57:00;;;;;;;9.75;4.40;;;;;;;17.05;10.31;101994.63;4853225;29;20080;-67
2022/03/17 08:59:31;;;;;;;5.63;3.75;;;;;;;17.12;10.62;102011.31;4851000;29;20109;-63
2022/03/17 09:02:08;;;;;;;8.60;3.88;;;;;;;16.62;10.46;102005.31;4847180;29;20055;-65
2022/03/17 09:04:34;;;;;;;9.98;4.80;;;;;;;15.80;11.22;101993.03;4842761;29;20041;-68
2022/03/17 09:07:00;;;;;;;10.10;4.10;;;;;;;15.11;11.15;101995.91;4841290;29;20049;-64
2022/03/17 09:09:32;;;;;;;8.00;4.25;;;;;;;15.63;11.53;102010.09;4841159;29;20041;-64
2022/03/17 09:11:59;;;;;;;7.30;3.47;;;;;;;15.93;11.27;102007.50;4843254;29;20124;-64
2022/03/17 09:14:25;;;;;;;3.97;3.42;;;;;;;16.51;11.38;102023.88;4840980;29;20485;-65
2022/03/17 09:16:50;;;;;;;13.13;4.22;;;;;;;16.40;10.95;102023.66;4844505;29;20069;-64
2022/03/17 09:19:15;;;;;;;8.07;3.80;;;;;;;16.75;10.78;102018.06;4844299;29;20080;-65
2022/03/17 09:21:40;;;;;;;6.25;3.65;;;;;;;16.46;10.59;102014.34;4847805;29;20053;-64
2022/03/17 09:24:05;;;;;;;9.13;4.50;;;;;;;16.72;10.78;102019.09;4845910;29;20128;-65
2022/03/17 09:26:31;;;;;;;7.07;4.05;;;;;;;16.94;10.52;102016.84;4845317;29;20053;-63
2022/03/17 09:28:55;;;;;;;7.82;4.25;;;;;;;16.89;10.74;102004.63;4846923;29;20419;-65
2022/03/17 09:31:20;;;;;;;6.60;3.65;;;;;;;16.97;10.57;102015.81;4845669;29;20417;-64
2022/03/17 09:33:45;;;;;;;6.47;4.00;;;;;;;17.51;10.80;102010.66;4853294;29;20496;-64
2022/03/17 09:36:10;;;;;;;6.07;4.20;;;;;;;18.26;10.56;102007.59;4852554;29;20037;-66
2022/03/17 09:38:35;;;;;;;4.60;3.05;;;;;;;18.99;10.18;102008.03;4853293;29;20527;-65
2022/03/17 09:41:00;;;;;;;8.02;4.20;;;;;;;19.72;10.09;102010.13;4848971;29;20519;-66
2022/03/17 09:43:34;;;;;;;5.45;3.85;;;;;;;20.20;9.75;102014.63;4831162;29;20132;-65
2022/03/17 09:45:59;;;;;;;10.98;4.25;;;;;;;20.77;9.52;102008.53;4847076;29;20414;-63
2022/03/17 09:48:26;;;;;;;10.40;4.53;;;;;;;21.16;9.71;102003.72;4846588;29;20445;-64
2022/03/17 09:50:58;;;;;;;8.95;3.97;;;;;;;21.21;9.79;101997.00;4846226;29;20520;-63
2022/03/17 09:53:24;;;;;;;7.97;3.70;;;;;;;20.46;9.88;101999.19;4845876;29;20100;-64
2022/03/17 09:55:50;;;;;;;8.68;4.00;;;;;;;19.71;10.54;101998.44;4844938;29;20044;-64
2022/03/17 09:58:14;;;;;;;6.28;3.60;;;;;;;19.21;10.93;101999.28;4844616;29;20053;-65
2022/03/17 10:00:49;;;;;;;8.63;3.95;;;;;;;17.71;10.36;101999.53;4829448;29;20051;-64
2022/03/17 10:03:16;;;;;;;8.52;3.80;;;;;;;16.80;10.69;102007.88;4845633;29;20044;-66
2022/03/17 10:05:46;;;;;;;5.50;3.70;;;;;;;16.50;10.86;101997.06;4844561;29;20097;-66
2022/03/17 10:08:11;;;;;;;5.38;3.92;;;;;;;16.71;10.94;101998.50;4844723;29;20065;-65
2022/03/17 10:10:37;;;;;;;7.75;4.53;;;;;;;17.04;10.70;101998.31;4845828;29;20051;-66
2022/03/17 10:13:06;;;;;;;6.68;3.95;;;;;;;17.08;11.05;101994.44;4845965;29;20063;-67
2022/03/17 10:15:31;;;;;;;7.00;4.10;;;;;;;17.31;10.64;101977.72;4845014;29;20052;-66
2022/03/17 10:17:56;;;;;;;15.27;4.20;;;;;;;17.95;10.52;101981.72;4845354;29;20044;-67
2022/03/17 10:20:29;;;;;;;7.53;3.70;;;;;;;18.70;10.25;101984.88;4844287;29;20068;-66
2022/03/17 10:22:55;;;;;;;7.30;3.60;;;;;;;18.37;9.61;101980.75;4847401;29;20112;-68
2022/03/17 10:25:31;;;;;;;5.68;3.92;;;;;;;17.04;10.50;101976.75;4848921;29;20110;-67
2022/03/17 10:27:56;;;;;;;13.07;4.43;;;;;;;14.79;10.92;101990.38;4847031;29;20060;-67
2022/03/17 10:30:35;;;;;;;4.78;3.28;;;;;;;13.09;12.12;101974.47;4847776;29;20496;-67
2022/03/17 10:33:18;;;;;;;5.57;3.55;;;;;;;11.33;13.74;101979.06;4844853;29;20052;-68
2022/03/17 10:35:46;;;;;;;6.20;3.95;;;;;;;9.68;13.81;101989.13;4828767;29;20041;-67
2022/03/17 10:38:16;;;;;;;6.32;3.78;;;;;;;8.58;15.30;101988.66;4845202;29;20084;-66
2022/03/17 10:40:42;;;;;;;7.82;3.38;;;;;;;7.60;15.54;101983.03;4844902;29;20053;-68
2022/03/17 10:43:19;;;;;;;5.50;3.58;;;;;;;6.94;16.03;101987.94;4845142;29;20059;-69
2022/03/17 10:45:45;;;;;;;10.02;4.55;;;;;;;6.04;16.59;101993.91;4844874;29;20053;-69
2022/03/17 10:48:10;;;;;;;7.72;2.88;;;;;;;5.36;16.75;101988.66;4845489;29;20527;-69
2022/03/17 10:50:43;;;;;;;9.63;3.70;;;;;;;4.90;17.22;101990.09;4849316;29;20059;-67
2022/03/17 10:53:08;;;;;;;3.65;2.53;;;;;;;4.68;17.47;101989.44;4828395;29;20527;-66
2022/03/17 10:55:35;;;;;;;5.68;3.35;;;;;;;4.24;18.06;101987.19;4845074;29;20441;-68
2022/03/17 10:58:14;;;;;;;5.57;3.75;;;;;;;3.72;18.23;101984.94;4845048;29;20072;-67
2022/03/17 11:00:53;;;;;;;12.00;5.28;;;;;;;3.16;19.29;101972.88;4845582;29;20048;-68
2022/03/17 11:03:19;;;;;;;7.07;3.40;;;;;;;2.78;19.23;101977.41;4845304;29;20049;-67
2022/03/17 11:05:44;;;;;;;5.05;3.05;;;;;;;2.88;19.44;101973.88;4845009;29;20063;-68
2022/03/17 11:08:10;;;;;;;12.93;2.95;;;;;;;2.84;19.31;101988.81;4845391;29;20131;-68
2022/03/17 11:10:38;;;;;;;5.65;3.30;;;;;;;2.38;20.15;101985.38;4843684;29;20133;-67
2022/03/17 11:13:11;;;;;;;6.30;2.97;;;;;;;2.23;20.56;101973.97;4843780;29;20048;-68
2022/03/17 11:15:38;;;;;;;9.35;3.67;;;;;;;2.14;20.55;101977.50;4844835;29;20135;-71
2022/03/17 11:18:06;;;;;;;8.15;3.28;;;;;;;2.11;21.16;101980.13;4845340;29;20586;-74
2022/03/17 11:20:31;;;;;;;9.05;4.30;;;;;;;2.09;20.69;101969.59;4847886;29;20129;-73
2022/03/17 11:23:20;;;;;;;9.00;3.10;;;;;;;2.17;20.83;101969.59;4851838;29;20037;-69
2022/03/17 11:25:57;;;;;;;5.13;3.38;;;;;;;2.18;21.56;101971.34;4853676;29;20079;-68
2022/03/17 11:28:39;;;;;;;4.35;2.90;;;;;;;2.25;21.99;101978.38;4880221;29;20047;-69
2022/03/17 11:31:05;;;;;;;7.85;3.65;;;;;;;2.26;20.77;101979.25;4873411;29;20048;-73
2022/03/17 11:33:44;;;;;;;6.07;2.58;;;;;;;2.42;20.60;101976.59;4873405;29;20054;-71
2022/03/17 11:36:09;;;;;;;9.55;3.40;;;;;;;2.07;20.92;101973.97;4882092;29;20488;-72